createdAt,value
2023-02-03T00:02:54.827Z,9.6
2023-02-03T00:07:54.768Z,11.8
2023-02-03T00:12:54.776Z,11.8
2023-02-03T00:17:54.767Z,8.6
2023-02-03T00:22:54.770Z,9.3
2023-02-03T00:27:54.813Z,11.4
2023-02-03T00:32:54.772Z,10.9
2023-02-03T00:37:54.808Z,11.2
2023-02-03T00:42:54.774Z,11.1
2023-02-03T00:47:54.775Z,10.7
2023-02-03T00:52:54.793Z,7.9
2023-02-03T00:57:54.778Z,15.0
2023-02-03T01:02:54.991Z,11.3
2023-02-03T01:07:54.783Z,7.7
2023-02-03T01:12:54.786Z,8.8
2023-02-03T01:17:54.794Z,8.3
2023-02-03T01:22:54.791Z,11.3
2023-02-03T01:27:54.847Z,7.9
2023-02-03T01:32:54.787Z,11.9
2023-02-03T01:37:54.794Z,6.8
2023-02-03T01:42:54.795Z,6.5
2023-02-03T01:47:54.801Z,4.1
2023-02-03T01:52:54.809Z,11.9
2023-02-03T01:57:54.821Z,7.0
2023-02-03T02:02:54.858Z,8.8
2023-02-03T02:07:54.817Z,8.9
2023-02-03T02:12:54.805Z,6.6
2023-02-03T02:17:54.813Z,9.6
2023-02-03T02:22:54.819Z,8.3
2023-02-03T02:27:54.883Z,5.9
2023-02-03T02:32:54.824Z,5.8
2023-02-03T02:37:54.827Z,6.7
2023-02-03T02:42:54.819Z,6.8
2023-02-03T02:47:54.818Z,6.7
2023-02-03T02:52:54.821Z,7.6
2023-02-03T02:57:54.819Z,6.4
2023-02-03T03:02:54.819Z,6.6
2023-02-03T03:07:54.832Z,6.5
2023-02-03T03:12:54.823Z,5.5
2023-02-03T03:17:54.828Z,5.2
2023-02-03T03:22:54.836Z,4.9
2023-02-03T03:27:54.896Z,4.2
2023-02-03T03:32:54.832Z,8.2
2023-02-03T03:37:54.834Z,6.1
2023-02-03T03:42:54.841Z,3.2
2023-02-03T03:47:54.860Z,5.3
2023-02-03T03:52:54.847Z,4.6
2023-02-03T03:57:54.853Z,6.2
2023-02-03T04:02:54.873Z,7.2
2023-02-03T04:07:54.855Z,6.5
2023-02-03T04:12:54.848Z,5.0
2023-02-03T04:17:54.857Z,6.4
2023-02-03T04:22:54.853Z,8.8
2023-02-03T04:27:54.921Z,3.9
2023-02-03T04:32:54.869Z,5.1
2023-02-03T04:37:54.877Z,5.2
2023-02-03T04:42:54.860Z,6.2
2023-02-03T04:47:54.932Z,4.2
2023-02-03T04:52:54.876Z,2.9
2023-02-03T04:57:54.876Z,4.6
2023-02-03T05:02:54.919Z,4.4
2023-02-03T05:07:54.865Z,5.8
2023-02-03T05:12:54.869Z,3.5
2023-02-03T05:17:54.869Z,6.3
2023-02-03T05:22:54.873Z,9.2
2023-02-03T05:27:54.940Z,6.6
2023-02-03T05:32:54.875Z,3.4
2023-02-03T05:37:54.882Z,5.4
2023-02-03T05:42:54.879Z,2.9
2023-02-03T05:47:54.887Z,7.8
2023-02-03T05:52:54.887Z,4.4
2023-02-03T05:57:54.887Z,6.2
2023-02-03T06:02:54.887Z,2.8
2023-02-03T06:07:54.891Z,5.7
2023-02-03T06:12:54.889Z,5.0
2023-02-03T06:17:54.892Z,7.8
2023-02-03T06:22:54.904Z,3.4
2023-02-03T06:27:54.956Z,3.7
2023-02-03T06:32:54.906Z,4.9
2023-02-03T06:37:54.906Z,12.5
2023-02-03T06:42:54.899Z,4.2
2023-02-03T06:47:54.904Z,4.4
2023-02-03T06:52:54.908Z,5.3
2023-02-03T06:57:54.905Z,5.9
2023-02-03T07:02:54.966Z,6.2
2023-02-03T07:07:54.909Z,4.2
2023-02-03T07:12:54.911Z,4.7
2023-02-03T07:17:55.099Z,7.4
2023-02-03T07:22:54.920Z,6.5
2023-02-03T07:27:54.963Z,5.9
2023-02-03T07:32:54.913Z,5.9
2023-02-03T07:37:54.925Z,7.7
2023-02-03T07:42:54.944Z,6.4
2023-02-03T07:47:54.925Z,5.8
2023-02-03T07:52:54.922Z,4.0
2023-02-03T07:57:54.947Z,5.3
2023-02-03T08:02:54.928Z,6.2
2023-02-03T08:07:54.924Z,5.3
2023-02-03T08:12:54.934Z,7.4
2023-02-03T08:17:54.932Z,4.8
2023-02-03T08:22:54.932Z,5.9
2023-02-03T08:27:54.962Z,7.7
2023-02-03T08:32:54.938Z,8.5
2023-02-03T08:37:54.954Z,7.6
2023-02-03T08:42:54.945Z,6.8
2023-02-03T08:47:54.962Z,5.4
2023-02-03T08:52:54.946Z,10.4
2023-02-03T08:57:54.940Z,7.9
2023-02-03T09:02:54.947Z,5.3
2023-02-03T09:07:54.944Z,10.9
2023-02-03T09:12:54.949Z,5.6
2023-02-03T09:17:54.959Z,9.0
2023-02-03T09:22:54.958Z,6.9
2023-02-03T09:27:54.994Z,7.2
2023-02-03T09:32:54.959Z,7.6
2023-02-03T09:37:54.957Z,8.4
2023-02-03T09:42:54.970Z,11.4
2023-02-03T09:47:54.981Z,9.2
2023-02-03T09:52:54.961Z,10.3
2023-02-03T09:57:54.963Z,7.6
2023-02-03T10:02:55.053Z,10.9
2023-02-03T10:07:54.968Z,7.7
2023-02-03T10:12:54.972Z,7.6
2023-02-03T10:17:54.876Z,8.0
2023-02-03T10:22:54.886Z,7.7
2023-02-03T10:27:55.049Z,9.9
2023-02-03T10:32:54.992Z,10.6
2023-02-03T10:37:54.890Z,8.6
2023-02-03T10:42:54.884Z,11.0
2023-02-03T10:47:54.896Z,9.3
2023-02-03T10:52:54.987Z,8.0
2023-02-03T10:57:54.996Z,8.9
2023-02-03T11:02:55.045Z,5.8
2023-02-03T11:07:54.892Z,9.6
2023-02-03T11:12:54.999Z,7.7
2023-02-03T11:17:54.905Z,8.0
2023-02-03T11:22:54.898Z,7.4
2023-02-03T11:27:55.037Z,6.1
2023-02-03T11:32:54.913Z,7.7
2023-02-03T11:37:54.900Z,11.0
2023-02-03T11:42:54.903Z,7.0
2023-02-03T11:47:54.908Z,6.1
2023-02-03T11:52:54.908Z,6.5
2023-02-03T11:57:54.909Z,8.8
2023-02-03T12:02:55.101Z,7.7
2023-02-03T12:07:54.931Z,9.1
2023-02-03T12:12:54.913Z,6.2
2023-02-03T12:17:55.024Z,8.2
2023-02-03T12:22:54.922Z,10.2
2023-02-03T12:27:55.049Z,6.2
2023-02-03T12:32:55.021Z,14.2
2023-02-03T12:37:55.024Z,8.4
2023-02-03T12:42:54.927Z,6.4
2023-02-03T12:47:54.929Z,5.8
2023-02-03T12:52:54.932Z,7.6
2023-02-03T12:57:55.051Z,6.9
2023-02-03T13:02:54.944Z,4.8
2023-02-03T13:07:54.930Z,6.2
2023-02-03T13:12:54.938Z,4.3
2023-02-03T13:17:54.935Z,4.6
2023-02-03T13:22:54.937Z,4.2
2023-02-03T13:27:54.992Z,3.6
2023-02-03T13:32:54.948Z,7.6
2023-02-03T13:37:54.952Z,6.7
2023-02-03T13:42:54.956Z,4.9
2023-02-03T13:47:54.949Z,5.0
2023-02-03T13:52:57.088Z,9.0
2023-02-03T13:57:54.951Z,9.4
2023-02-03T14:02:54.955Z,5.3
2023-02-03T14:07:54.968Z,9.2
2023-02-03T14:12:55.059Z,11.8
2023-02-03T14:17:55.061Z,12.1
2023-02-03T14:22:55.070Z,12.6
2023-02-03T14:27:55.121Z,8.6
2023-02-03T14:32:55.068Z,12.3
2023-02-03T14:37:55.069Z,11.3
2023-02-03T14:43:04.883Z,10.7
2023-02-03T14:47:55.070Z,9.6
2023-02-03T14:52:55.071Z,10.2
2023-02-03T14:57:55.079Z,9.4
2023-02-03T15:02:55.086Z,9.8
2023-02-03T15:07:55.090Z,9.0
2023-02-03T15:12:55.098Z,10.6
2023-02-03T15:17:55.087Z,9.7
2023-02-03T15:22:55.087Z,12.5
2023-02-03T15:27:55.140Z,12.5
2023-02-03T15:32:55.081Z,12.4
2023-02-03T15:37:55.100Z,10.1
2023-02-03T15:42:55.115Z,16.2
2023-02-03T15:47:55.091Z,10.7
2023-02-03T15:52:55.094Z,14.6
2023-02-03T15:57:55.105Z,10.1
2023-02-03T16:02:55.267Z,13.1
2023-02-03T16:07:55.117Z,12.2
2023-02-03T16:12:55.106Z,9.2
2023-02-03T16:17:55.105Z,13.1
2023-02-03T16:22:55.101Z,12.9
2023-02-03T16:27:55.125Z,12.0
2023-02-03T16:32:55.109Z,11.0
2023-02-03T16:37:55.104Z,12.5
2023-02-03T16:42:55.105Z,11.6
2023-02-03T16:47:55.115Z,11.5
2023-02-03T16:52:55.113Z,18.5
2023-02-03T16:57:55.113Z,14.0
2023-02-03T17:02:56.549Z,9.7
2023-02-03T17:07:55.129Z,13.9
2023-02-03T17:12:55.124Z,14.5
2023-02-03T17:17:55.117Z,11.5
2023-02-03T17:22:55.120Z,10.3
2023-02-03T17:27:55.131Z,14.5
2023-02-03T17:32:56.694Z,14.6
2023-02-03T17:37:55.133Z,12.4
2023-02-03T17:57:55.220Z,9.9
2023-02-03T18:02:56.086Z,11.7
2023-02-03T18:07:55.106Z,13.7
2023-02-03T18:12:55.112Z,15.5
2023-02-03T18:17:55.186Z,14.1
2023-02-03T18:22:55.110Z,15.5
2023-02-03T18:27:55.232Z,8.2
2023-02-03T18:32:55.111Z,13.9
2023-02-03T18:37:55.106Z,12.3
2023-02-03T18:42:55.121Z,12.9
2023-02-03T18:47:55.438Z,13.2
2023-02-03T18:52:55.143Z,10.4
2023-02-03T18:57:55.137Z,11.7
2023-02-03T19:02:55.204Z,13.5
2023-02-03T19:07:55.128Z,16.1
2023-02-03T19:12:55.130Z,12.9
2023-02-03T19:17:55.139Z,10.0
2023-02-03T19:22:55.158Z,15.4
2023-02-03T19:27:55.192Z,13.1
2023-02-03T19:32:55.157Z,18.9
2023-02-03T19:37:55.150Z,15.0
2023-02-03T19:42:55.156Z,18.9
2023-02-03T19:47:55.159Z,15.4
2023-02-03T19:52:55.161Z,13.7
2023-02-03T19:57:55.163Z,14.7
2023-02-03T20:02:55.174Z,13.0
2023-02-03T20:07:55.165Z,14.2
2023-02-03T20:12:55.188Z,14.9
2023-02-03T20:17:55.169Z,15.0
2023-02-03T20:22:55.166Z,15.4
2023-02-03T20:27:55.210Z,17.3
2023-02-03T20:32:55.181Z,14.5
2023-02-03T20:37:55.170Z,12.9
2023-02-03T20:42:55.181Z,17.3
2023-02-03T20:47:55.175Z,14.3
2023-02-03T20:52:55.183Z,9.6
2023-02-03T20:57:55.194Z,14.5
2023-02-03T21:02:55.186Z,14.0
2023-02-03T21:07:55.210Z,17.6
2023-02-03T21:12:55.197Z,15.6
2023-02-03T21:17:55.198Z,15.6
2023-02-03T21:22:55.201Z,13.1
2023-02-03T21:27:55.253Z,16.4
2023-02-03T21:32:55.200Z,15.1
2023-02-03T21:37:55.204Z,17.9
2023-02-03T21:42:55.216Z,18.7
2023-02-03T21:47:55.202Z,11.9
2023-02-03T21:52:55.201Z,20.9
2023-02-03T21:57:55.206Z,12.1
2023-02-03T22:02:55.285Z,16.2
2023-02-03T22:07:55.252Z,13.5
2023-02-03T22:12:55.208Z,18.9
2023-02-03T22:17:55.212Z,16.1
2023-02-03T22:22:55.327Z,12.7
2023-02-03T22:27:55.241Z,16.8
2023-02-03T22:32:55.235Z,10.7
2023-02-03T22:37:55.220Z,14.2
2023-02-03T22:42:55.216Z,15.4
2023-02-03T22:47:55.248Z,9.8
2023-02-03T22:52:55.218Z,15.1
2023-02-03T22:57:55.231Z,18.2
2023-02-03T23:02:55.282Z,15.7
2023-02-03T23:07:55.238Z,11.6
2023-02-03T23:12:55.231Z,16.0
2023-02-03T23:17:55.252Z,12.5
2023-02-03T23:22:55.253Z,16.8
2023-02-03T23:27:55.283Z,14.3
2023-02-03T23:32:55.239Z,11.3
2023-02-03T23:37:55.252Z,14.4
2023-02-03T23:42:55.245Z,12.7
2023-02-03T23:47:55.242Z,14.5
2023-02-03T23:52:55.242Z,9.4
2023-02-03T23:57:55.260Z,14.1
